Time;durP1;ratioP1;P1;durP2;ratioP2;P2;SDS_P1;SDS_P2;PMS_P1;PMS_P2;Temp;Humidity;BMP_temperature;BMP_pressure;BME280_temperature;BME280_humidity;BME280_pressure;Samples;Min_cycle;Max_cycle;Signal;HPM_P1;HPM_P2
2022/03/17 05:00:50;;;;;;;50.97;25.92;;;7.00;99.90;;;;;;5717465;23;20231;-69
2022/03/17 05:03:18;;;;;;;43.42;24.55;;;7.00;99.90;;;;;;4953083;28;20673;-69
2022/03/17 05:05:44;;;;;;;46.17;22.42;;;7.00;99.90;;;;;;4952710;28;20224;-70
2022/03/17 05:08:11;;;;;;;47.20;25.20;;;7.00;99.90;;;;;;4953106;28;20312;-69
2022/03/17 05:10:38;;;;;;;47.40;25.35;;;7.00;99.90;;;;;;4948617;28;20660;-67
2022/03/17 05:13:06;;;;;;;43.40;24.13;;;7.10;99.90;;;;;;4933548;29;20321;-68
2022/03/17 05:15:34;;;;;;;44.55;24.75;;;7.00;99.90;;;;;;4933960;29;20243;-67
2022/03/17 05:18:02;;;;;;;40.33;22.58;;;7.00;99.90;;;;;;4933751;29;20209;-67
2022/03/17 05:20:29;;;;;;;35.50;19.20;;;7.00;99.90;;;;;;4932938;29;20206;-67
2022/03/17 05:22:56;;;;;;;43.60;26.02;;;7.10;99.90;;;;;;4933727;29;20213;-67
2022/03/17 05:25:22;;;;;;;32.17;19.40;;;7.10;99.90;;;;;;4931066;29;20205;-68
2022/03/17 05:27:50;;;;;;;38.13;20.55;;;7.10;99.90;;;;;;4933974;29;20221;-68
2022/03/17 05:30:19;;;;;;;42.42;24.23;;;7.10;99.90;;;;;;4932743;29;20608;-68
2022/03/17 05:32:47;;;;;;;40.05;23.70;;;7.10;99.90;;;;;;4933927;29;20707;-68
2022/03/17 05:35:17;;;;;;;36.22;20.98;;;7.10;99.90;;;;;;4932892;29;20655;-68
2022/03/17 05:37:44;;;;;;;41.72;22.75;;;7.10;99.90;;;;;;4933623;29;20221;-67
2022/03/17 05:40:15;;;;;;;43.42;24.25;;;7.10;99.90;;;;;;4932631;29;20209;-68
2022/03/17 05:42:43;;;;;;;41.28;24.48;;;7.20;99.90;;;;;;4933739;29;20214;-68
2022/03/17 05:45:10;;;;;;;32.30;19.65;;;7.20;99.90;;;;;;4932867;29;20213;-68
2022/03/17 05:47:38;;;;;;;40.30;23.50;;;7.20;99.90;;;;;;4933547;29;20217;-68
2022/03/17 05:50:06;;;;;;;39.70;25.27;;;7.20;99.90;;;;;;4932337;29;20288;-67
2022/03/17 05:52:35;;;;;;;45.88;23.73;;;7.20;99.90;;;;;;4933350;29;20237;-67
2022/03/17 05:55:02;;;;;;;45.30;23.75;;;7.20;99.90;;;;;;4933108;29;20679;-69
2022/03/17 05:57:29;;;;;;;39.33;20.95;;;7.20;99.90;;;;;;4933584;29;20597;-70
2022/03/17 05:59:56;;;;;;;45.38;25.30;;;7.20;99.90;;;;;;4932286;29;20286;-69
2022/03/17 06:02:23;;;;;;;32.05;18.48;;;7.20;99.90;;;;;;4934198;29;20245;-69
2022/03/17 06:04:49;;;;;;;42.72;24.25;;;7.20;99.90;;;;;;4933231;29;20671;-69
2022/03/17 06:07:16;;;;;;;52.53;25.58;;;7.20;99.90;;;;;;4933259;29;20690;-69
2022/03/17 06:09:44;;;;;;;44.00;23.92;;;7.20;99.90;;;;;;4932524;29;20301;-68
2022/03/17 06:12:11;;;;;;;21.45;15.32;;;7.30;99.90;;;;;;4933265;29;20230;-67
2022/03/17 06:14:38;;;;;;;46.80;25.15;;;7.30;99.90;;;;;;4932345;29;20214;-68
2022/03/17 06:17:05;;;;;;;39.70;22.52;;;7.30;99.90;;;;;;4933184;29;20627;-68
2022/03/17 06:19:31;;;;;;;40.85;20.30;;;7.30;99.90;;;;;;4931804;29;20297;-67
2022/03/17 06:21:58;;;;;;;41.53;25.02;;;7.30;99.90;;;;;;4933153;29;20714;-68
2022/03/17 06:24:25;;;;;;;40.92;21.80;;;7.30;99.90;;;;;;4932836;29;20400;-67
2022/03/17 06:26:53;;;;;;;30.48;18.75;;;7.40;99.90;;;;;;4933248;29;20218;-67
2022/03/17 06:29:20;;;;;;;42.22;21.35;;;7.40;99.90;;;;;;4932476;29;20343;-67
2022/03/17 06:31:46;;;;;;;47.38;24.77;;;7.40;99.90;;;;;;4932542;29;20309;-68
2022/03/17 06:34:13;;;;;;;40.20;23.65;;;7.40;99.90;;;;;;4932701;29;20261;-67
2022/03/17 06:36:40;;;;;;;43.65;25.25;;;7.50;99.90;;;;;;4933014;29;20297;-67
2022/03/17 06:39:07;;;;;;;38.72;24.02;;;7.50;99.90;;;;;;4933496;29;20560;-68
2022/03/17 06:41:33;;;;;;;37.58;24.60;;;7.50;99.90;;;;;;4932631;29;20285;-67
2022/03/17 06:44:01;;;;;;;43.53;23.88;;;7.50;99.90;;;;;;4932465;29;20213;-68
2022/03/17 06:46:29;;;;;;;46.58;25.63;;;7.50;99.90;;;;;;4932732;29;20210;-68
2022/03/17 06:48:56;;;;;;;39.20;23.05;;;7.60;99.90;;;;;;4935196;29;20217;-67
2022/03/17 06:51:23;;;;;;;49.35;27.15;;;7.60;99.90;;;;;;4935459;29;20242;-67
2022/03/17 06:53:49;;;;;;;36.38;22.23;;;7.60;99.90;;;;;;4936518;29;20617;-69
2022/03/17 06:56:16;;;;;;;44.70;27.33;;;7.60;99.90;;;;;;4936268;29;20276;-69
2022/03/17 06:58:43;;;;;;;41.70;26.63;;;7.70;99.90;;;;;;4936003;29;20217;-68
2022/03/17 07:01:11;;;;;;;45.50;24.65;;;7.70;99.90;;;;;;4935181;29;20238;-68
2022/03/17 07:03:37;;;;;;;46.75;27.20;;;7.70;99.90;;;;;;4929880;29;20672;-68
2022/03/17 07:06:04;;;;;;;33.65;19.17;;;7.70;99.90;;;;;;4935767;29;20210;-68
2022/03/17 07:08:31;;;;;;;38.88;21.98;;;7.70;99.90;;;;;;4936186;29;20209;-68
2022/03/17 07:10:57;;;;;;;36.20;22.10;;;7.70;99.90;;;;;;4935185;29;20329;-68
2022/03/17 07:13:24;;;;;;;48.22;25.65;;;7.80;99.90;;;;;;4935465;29;20242;-69
2022/03/17 07:15:51;;;;;;;49.90;26.48;;;7.80;99.90;;;;;;4935686;29;20217;-68
2022/03/17 07:18:19;;;;;;;46.67;26.83;;;7.80;99.90;;;;;;4935755;29;20746;-68
2022/03/17 07:20:45;;;;;;;43.22;26.70;;;7.80;99.90;;;;;;4934948;29;20636;-68
2022/03/17 07:23:12;;;;;;;47.67;29.67;;;7.80;99.90;;;;;;4935662;29;20237;-69
2022/03/17 07:25:39;;;;;;;44.50;24.13;;;7.80;99.90;;;;;;4935495;29;20589;-70
2022/03/17 07:28:05;;;;;;;47.53;25.10;;;7.90;99.90;;;;;;4935133;29;20630;-68
2022/03/17 07:30:33;;;;;;;45.53;26.20;;;7.90;99.90;;;;;;4934770;29;20240;-70
2022/03/17 07:33:00;;;;;;;36.47;20.25;;;7.90;99.90;;;;;;4935442;29;20260;-69
2022/03/17 07:35:29;;;;;;;45.55;28.00;;;8.00;99.90;;;;;;4930622;29;20209;-68
2022/03/17 07:37:58;;;;;;;40.83;25.15;;;8.00;99.90;;;;;;4935522;29;20233;-68
2022/03/17 07:40:25;;;;;;;44.55;26.27;;;8.00;99.90;;;;;;4934783;29;20628;-68
2022/03/17 07:42:51;;;;;;;45.28;26.83;;;8.00;99.90;;;;;;4935267;29;20269;-68
2022/03/17 07:45:18;;;;;;;45.83;25.83;;;8.00;99.90;;;;;;4935072;29;20217;-68
2022/03/17 07:47:47;;;;;;;38.20;23.48;;;8.10;99.90;;;;;;4935167;29;20222;-68
2022/03/17 07:50:14;;;;;;;39.25;25.67;;;8.10;99.90;;;;;;4934168;29;20264;-68
2022/03/17 07:52:42;;;;;;;38.17;20.15;;;8.10;99.90;;;;;;4936043;29;20210;-68
2022/03/17 07:55:09;;;;;;;43.58;26.25;;;8.10;99.90;;;;;;4935264;29;20249;-68
2022/03/17 07:57:37;;;;;;;39.88;25.48;;;8.10;99.90;;;;;;4935183;29;20622;-67
2022/03/17 08:00:07;;;;;;;43.58;26.38;;;8.10;99.90;;;;;;4934062;29;20261;-69
2022/03/17 08:02:34;;;;;;;41.88;25.77;;;8.10;99.90;;;;;;4935088;29;20719;-68
2022/03/17 08:05:02;;;;;;;44.72;26.40;;;8.10;99.90;;;;;;4934895;29;20222;-69
2022/03/17 08:07:28;;;;;;;44.70;27.83;;;8.20;99.90;;;;;;4935114;29;20214;-68
2022/03/17 08:09:58;;;;;;;50.50;28.63;;;8.20;99.90;;;;;;4933986;29;20261;-68
2022/03/17 08:12:26;;;;;;;44.45;26.50;;;8.20;99.90;;;;;;4933389;29;20315;-68
2022/03/17 08:14:53;;;;;;;41.38;25.02;;;8.30;99.90;;;;;;4928270;29;20254;-69
2022/03/17 08:17:20;;;;;;;45.75;27.23;;;8.30;99.90;;;;;;4934895;29;20571;-68
2022/03/17 08:19:46;;;;;;;50.33;25.48;;;8.30;99.90;;;;;;4933675;29;20269;-69
2022/03/17 08:22:13;;;;;;;43.30;26.40;;;8.40;99.90;;;;;;4934851;29;20595;-68
2022/03/17 08:24:40;;;;;;;38.47;24.35;;;8.40;99.90;;;;;;4934506;29;20617;-68
2022/03/17 08:27:08;;;;;;;52.22;29.27;;;8.40;99.90;;;;;;4935038;29;20210;-68
2022/03/17 08:29:35;;;;;;;45.75;28.35;;;8.50;99.90;;;;;;4933610;29;20695;-68
2022/03/17 08:32:02;;;;;;;48.53;27.02;;;8.60;99.90;;;;;;4934711;29;20332;-69
2022/03/17 08:34:29;;;;;;;36.90;22.52;;;8.60;99.90;;;;;;4934041;29;20675;-69
2022/03/17 08:36:56;;;;;;;36.17;23.20;;;8.60;99.90;;;;;;4934654;29;20343;-68
2022/03/17 08:39:23;;;;;;;45.13;26.80;;;8.60;99.90;;;;;;4934347;29;20352;-69
2022/03/17 08:41:51;;;;;;;49.38;28.05;;;8.70;99.90;;;;;;4933996;29;20790;-69
2022/03/17 08:44:20;;;;;;;46.85;28.20;;;8.70;99.90;;;;;;4934147;29;20233;-68
2022/03/17 08:49:31;;;;;;;39.70;26.85;;;8.70;99.90;;;;;;4934284;29;20208;-68
2022/03/17 08:52:00;;;;;;;48.47;27.40;;;8.80;99.90;;;;;;4935379;29;20241;-67
2022/03/17 08:54:28;;;;;;;47.20;29.23;;;8.80;99.90;;;;;;4935147;29;20304;-69
2022/03/17 08:56:59;;;;;;;48.35;28.80;;;8.80;99.90;;;;;;4935308;29;20206;-67
2022/03/17 08:59:29;;;;;;;41.05;25.15;;;8.80;99.90;;;;;;4934450;29;20213;-67
2022/03/17 09:01:55;;;;;;;47.72;28.52;;;8.80;99.90;;;;;;4932403;29;20229;-67
2022/03/17 09:04:22;;;;;;;48.08;27.63;;;8.80;99.90;;;;;;4931181;29;20288;-67
2022/03/17 09:06:49;;;;;;;45.92;27.92;;;8.80;99.90;;;;;;4934238;29;20206;-68
2022/03/17 09:09:16;;;;;;;46.17;27.77;;;8.90;99.90;;;;;;4933901;29;20257;-68
2022/03/17 09:11:44;;;;;;;44.55;27.02;;;8.90;99.90;;;;;;4933006;29;20234;-69
2022/03/17 09:14:11;;;;;;;43.42;28.40;;;8.90;99.90;;;;;;4933507;29;20763;-69
2022/03/17 09:16:39;;;;;;;49.58;30.40;;;9.00;99.90;;;;;;4933755;29;20213;-69
2022/03/17 09:19:06;;;;;;;52.30;28.90;;;9.00;99.90;;;;;;4933975;29;20269;-68
2022/03/17 09:21:35;;;;;;;47.83;27.33;;;9.10;99.90;;;;;;4933133;29;20273;-70
2022/03/17 09:24:03;;;;;;;49.30;28.83;;;9.10;99.90;;;;;;4933911;29;20213;-70
2022/03/17 09:26:30;;;;;;;49.53;26.92;;;9.10;99.90;;;;;;4934018;29;20213;-70
2022/03/17 09:28:57;;;;;;;45.75;27.20;;;9.00;99.90;;;;;;4934200;29;20245;-70
2022/03/17 09:31:24;;;;;;;42.70;27.80;;;9.00;99.90;;;;;;4934994;29;20238;-70
2022/03/17 09:33:52;;;;;;;47.38;25.92;;;9.00;99.90;;;;;;4935187;29;20218;-70
2022/03/17 09:36:19;;;;;;;45.67;27.60;;;9.00;99.90;;;;;;4933480;29;20690;-70
2022/03/17 09:39:39;;;;;;;48.50;29.20;;;9.00;99.90;;;;;;4936003;29;20282;-70
2022/03/17 09:41:35;;;;;;;42.90;28.65;;;9.00;99.90;;;;;;4934709;29;20313;-70
2022/03/17 09:44:03;;;;;;;50.15;30.40;;;9.00;99.90;;;;;;4936119;29;20209;-70
2022/03/17 09:46:30;;;;;;;42.00;28.25;;;9.00;99.90;;;;;;4935154;29;20300;-70
2022/03/17 09:48:59;;;;;;;40.33;25.40;;;9.00;99.90;;;;;;4933448;29;20213;-70
2022/03/17 09:51:27;;;;;;;45.00;27.77;;;9.00;99.90;;;;;;4932403;29;20608;-70
2022/03/17 09:54:00;;;;;;;44.38;28.38;;;9.00;99.90;;;;;;4933271;29;20565;-69
2022/03/17 09:56:27;;;;;;;43.00;27.05;;;9.00;99.90;;;;;;4933134;29;20304;-71
2022/03/17 09:58:55;;;;;;;47.67;31.10;;;9.00;99.90;;;;;;4932903;29;20289;-70
2022/03/17 10:01:25;;;;;;;45.47;28.30;;;9.00;99.90;;;;;;4932557;29;20234;-69
2022/03/17 10:03:51;;;;;;;44.05;27.42;;;9.00;99.90;;;;;;4933317;29;20213;-69
2022/03/17 10:06:20;;;;;;;42.85;27.23;;;9.00;99.90;;;;;;4932566;29;20296;-69
2022/03/17 10:08:49;;;;;;;44.78;26.77;;;8.90;99.90;;;;;;4933441;29;20217;-69
2022/03/17 10:11:16;;;;;;;47.55;27.88;;;8.90;99.90;;;;;;4932457;29;20614;-69
2022/03/17 10:13:48;;;;;;;40.75;26.30;;;9.00;99.90;;;;;;4932339;29;20679;-70
2022/03/17 10:16:18;;;;;;;40.95;26.38;;;8.90;99.90;;;;;;4933012;29;20213;-69
2022/03/17 10:18:45;;;;;;;46.03;29.13;;;8.90;99.90;;;;;;4933887;29;20268;-70
2022/03/17 10:21:16;;;;;;;49.90;28.48;;;8.90;99.90;;;;;;4931584;29;20226;-68
2022/03/17 10:23:49;;;;;;;46.45;28.58;;;8.80;99.90;;;;;;4933547;29;20205;-69
2022/03/17 10:26:32;;;;;;;45.53;28.83;;;8.80;99.90;;;;;;4937353;29;20265;-70
2022/03/17 10:29:05;;;;;;;47.53;30.55;;;8.70;99.90;;;;;;4936772;29;20516;-70
2022/03/17 10:31:31;;;;;;;45.63;27.05;;;8.70;99.90;;;;;;4936594;29;20324;-69
2022/03/17 10:33:58;;;;;;;49.40;29.55;;;8.60;99.90;;;;;;4936835;29;20210;-69
2022/03/17 10:36:25;;;;;;;47.30;28.83;;;8.60;99.90;;;;;;4936302;29;20213;-69
2022/03/17 10:38:53;;;;;;;48.65;28.02;;;8.60;99.90;;;;;;4936720;29;20292;-68
2022/03/17 10:41:20;;;;;;;48.95;29.08;;;8.50;99.90;;;;;;4936013;29;20233;-69
2022/03/17 10:43:46;;;;;;;55.05;28.77;;;8.50;99.90;;;;;;4935791;29;20272;-68
2022/03/17 10:46:16;;;;;;;46.95;29.13;;;8.50;99.90;;;;;;4936398;29;20238;-68
2022/03/17 10:49:05;;;;;;;48.92;29.40;;;8.50;99.90;;;;;;4936783;29;20218;-69
2022/03/17 10:51:33;;;;;;;56.85;29.52;;;8.40;99.90;;;;;;4932403;29;20241;-70
2022/03/17 10:54:07;;;;;;;59.35;33.72;;;8.40;99.90;;;;;;4936109;29;20238;-70
2022/03/17 10:56:36;;;;;;;52.20;31.60;;;8.30;99.90;;;;;;4936125;29;20222;-69
2022/03/17 10:59:03;;;;;;;47.92;31.00;;;8.30;99.90;;;;;;4936025;29;20290;-69
2022/03/17 11:01:40;;;;;;;56.85;31.88;;;8.30;99.90;;;;;;4935419;29;20237;-69
2022/03/17 11:04:08;;;;;;;47.50;29.50;;;8.30;99.90;;;;;;4932073;29;20210;-69
2022/03/17 11:06:35;;;;;;;51.83;29.98;;;8.20;99.90;;;;;;4935594;29;20581;-69
2022/03/17 11:09:02;;;;;;;56.10;32.28;;;8.30;99.90;;;;;;4935894;29;20209;-69
2022/03/17 11:11:31;;;;;;;61.47;36.65;;;8.30;99.90;;;;;;4935270;29;20246;-70
2022/03/17 11:13:58;;;;;;;53.70;33.05;;;8.30;99.90;;;;;;4935502;29;20313;-70
2022/03/17 11:16:33;;;;;;;47.95;28.67;;;8.30;99.90;;;;;;4935758;29;20265;-69
2022/03/17 11:19:00;;;;;;;52.70;32.95;;;8.30;99.90;;;;;;4935787;29;20209;-70
2022/03/17 11:21:30;;;;;;;61.55;37.63;;;8.40;99.90;;;;;;4934735;29;20285;-70
2022/03/17 11:24:01;;;;;;;55.10;33.95;;;8.40;99.90;;;;;;4935655;29;20305;-70
2022/03/17 11:26:36;;;;;;;54.85;34.05;;;8.40;99.90;;;;;;4935875;29;20546;-70
2022/03/17 11:29:07;;;;;;;60.78;34.75;;;8.40;99.90;;;;;;4935456;29;20220;-70
2022/03/17 11:31:51;;;;;;;53.85;32.65;;;8.40;99.90;;;;;;4935473;29;20234;-70
2022/03/17 11:34:46;;;;;;;53.88;34.35;;;8.30;99.90;;;;;;4930733;29;20380;-70
2022/03/17 11:37:24;;;;;;;47.20;29.70;;;8.30;99.90;;;;;;4935521;29;20648;-70
2022/03/17 11:39:55;;;;;;;43.58;28.65;;;8.30;99.90;;;;;;4934893;29;20213;-70
2022/03/17 11:42:31;;;;;;;53.80;32.15;;;8.30;99.90;;;;;;4935227;29;20284;-70
2022/03/17 11:45:09;;;;;;;51.17;29.35;;;8.30;99.90;;;;;;4934833;29;20466;-70
2022/03/17 11:47:37;;;;;;;71.70;43.08;;;8.30;99.90;;;;;;4935358;29;20245;-70
2022/03/17 11:50:24;;;;;;;54.10;33.35;;;8.30;99.90;;;;;;4934325;29;20232;-70
2022/03/17 11:52:58;;;;;;;54.47;31.05;;;8.30;99.90;;;;;;4935077;29;20230;-70
2022/03/17 11:55:35;;;;;;;46.97;28.85;;;8.30;99.90;;;;;;4935152;29;20301;-70
2022/03/17 11:58:23;;;;;;;51.08;28.92;;;8.40;99.90;;;;;;4935210;29;20566;-70
2022/03/17 12:00:52;;;;;;;42.83;27.13;;;8.30;99.90;;;;;;4934365;29;20269;-71
2022/03/17 12:03:28;;;;;;;39.40;24.30;;;8.40;99.90;;;;;;4934961;29;20277;-70
2022/03/17 12:06:10;;;;;;;40.00;23.58;;;8.40;99.90;;;;;;4934859;29;20237;-70
2022/03/17 12:08:38;;;;;;;34.72;22.55;;;8.30;99.90;;;;;;4935163;29;20220;-70
2022/03/17 12:11:08;;;;;;;29.73;19.20;;;8.30;99.90;;;;;;4934190;29;20308;-68
2022/03/17 12:13:37;;;;;;;27.52;18.15;;;8.30;99.90;;;;;;4934354;29;20217;-70
2022/03/17 12:16:05;;;;;;;23.20;16.60;;;8.30;99.90;;;;;;4934623;29;20206;-70
2022/03/17 12:19:00;;;;;;;31.52;17.50;;;8.30;99.90;;;;;;4935074;29;20210;-70
2022/03/17 12:22:00;;;;;;;16.85;12.88;;;8.30;99.90;;;;;;4933804;29;20297;-69
2022/03/17 12:24:34;;;;;;;19.38;13.10;;;8.30;99.90;;;;;;4933774;29;20213;-69
2022/03/17 12:27:05;;;;;;;25.00;13.98;;;8.20;99.90;;;;;;4934621;29;20209;-70
2022/03/17 12:29:34;;;;;;;23.27;13.30;;;8.20;99.90;;;;;;4933347;29;20269;-69
2022/03/17 12:32:05;;;;;;;16.35;12.10;;;8.20;99.90;;;;;;4934578;29;20230;-69
2022/03/17 12:34:33;;;;;;;20.60;11.45;;;8.20;99.90;;;;;;4933633;29;20630;-69
2022/03/17 12:37:01;;;;;;;15.05;10.98;;;8.30;99.90;;;;;;4934589;29;20210;-69
2022/03/17 12:39:29;;;;;;;18.83;9.02;;;8.20;99.90;;;;;;4934282;29;20411;-68
2022/03/17 12:41:57;;;;;;;15.50;9.48;;;8.20;99.90;;;;;;4933922;29;20233;-69
2022/03/17 12:44:24;;;;;;;12.15;8.10;;;8.20;99.90;;;;;;4933841;29;20209;-69
2022/03/17 12:46:53;;;;;;;13.18;8.88;;;8.20;99.90;;;;;;4933504;29;20220;-68
2022/03/17 12:49:20;;;;;;;12.27;7.97;;;8.20;99.90;;;;;;4934326;29;20281;-69
2022/03/17 12:51:48;;;;;;;9.27;8.35;;;8.30;99.90;;;;;;4933576;29;20241;-69
2022/03/17 12:54:15;;;;;;;17.00;8.55;;;8.30;99.90;;;;;;4934218;29;20222;-69
2022/03/17 12:56:52;;;;;;;10.13;7.35;;;8.30;99.90;;;;;;4934017;29;20213;-68
2022/03/17 12:59:20;;;;;;;8.70;6.78;;;8.30;99.90;;;;;;4933779;29;20217;-68
2022/03/17 13:01:48;;;;;;;10.55;8.02;;;8.20;99.90;;;;;;4933326;29;20300;-68
2022/03/17 13:04:16;;;;;;;8.88;6.78;;;8.20;99.90;;;;;;4930929;29;20588;-68
2022/03/17 13:06:55;;;;;;;8.27;7.43;;;8.20;99.90;;;;;;4933598;29;20214;-69
2022/03/17 13:09:27;;;;;;;11.57;7.47;;;8.30;99.90;;;;;;4933592;29;20272;-68
2022/03/17 13:14:46;;;;;;;16.92;6.90;;;8.30;99.90;;;;;;4933184;29;20681;-69
2022/03/17 13:17:13;;;;;;;11.70;6.43;;;8.30;99.90;;;;;;4933849;29;20260;-68
2022/03/17 13:19:49;;;;;;;14.30;7.95;;;8.30;99.90;;;;;;4932552;29;20234;-69
2022/03/17 13:22:23;;;;;;;7.57;6.28;;;8.40;99.90;;;;;;4933449;29;20272;-69
2022/03/17 13:25:05;;;;;;;11.07;7.22;;;8.40;99.90;;;;;;4933594;29;20301;-69
2022/03/17 13:27:32;;;;;;;13.70;6.22;;;8.40;99.90;;;;;;4933700;29;20674;-70
2022/03/17 13:30:01;;;;;;;8.45;6.38;;;8.50;99.90;;;;;;4932572;29;20637;-70
2022/03/17 13:32:28;;;;;;;5.55;5.03;;;8.50;99.90;;;;;;4933457;29;20268;-69
2022/03/17 13:35:00;;;;;;;5.35;4.85;;;8.60;99.90;;;;;;4928653;29;20574;-69
2022/03/17 13:37:35;;;;;;;4.95;4.55;;;8.60;99.90;;;;;;4933481;29;20206;-70
2022/03/17 13:40:03;;;;;;;10.60;5.05;;;8.60;99.90;;;;;;4932724;29;20220;-69
2022/03/17 13:42:30;;;;;;;7.18;4.60;;;8.60;99.90;;;;;;4933335;29;20320;-69
2022/03/17 13:44:57;;;;;;;6.50;4.57;;;8.60;99.90;;;;;;4932873;29;20236;-70
2022/03/17 13:47:26;;;;;;;5.93;5.13;;;8.60;99.90;;;;;;4933106;29;20228;-69
2022/03/17 13:50:13;;;;;;;7.47;5.30;;;8.60;99.90;;;;;;4932079;29;20225;-69
2022/03/17 13:52:42;;;;;;;6.60;5.18;;;8.50;99.90;;;;;;4927263;29;20237;-69
2022/03/17 13:55:11;;;;;;;4.90;4.07;;;8.50;99.90;;;;;;4933454;29;20214;-69
2022/03/17 13:57:39;;;;;;;10.25;4.35;;;8.50;99.90;;;;;;4935268;29;20225;-69
2022/03/17 14:00:18;;;;;;;6.63;3.60;;;8.50;99.90;;;;;;4935746;29;20251;-70
2022/03/17 14:02:45;;;;;;;4.03;3.05;;;8.40;99.90;;;;;;4936771;29;20268;-69
2022/03/17 14:05:16;;;;;;;3.33;2.88;;;8.40;99.90;;;;;;4936585;29;20209;-68
2022/03/17 14:07:43;;;;;;;3.75;3.22;;;8.40;99.90;;;;;;4937140;29;20210;-69
2022/03/17 14:10:10;;;;;;;2.25;2.15;;;8.40;99.90;;;;;;4936193;29;20210;-69
2022/03/17 14:12:39;;;;;;;2.20;2.08;;;8.40;99.90;;;;;;4936585;29;20237;-69
2022/03/17 14:15:06;;;;;;;2.38;2.20;;;8.50;99.90;;;;;;4936142;29;20217;-69
2022/03/17 14:17:33;;;;;;;5.10;2.78;;;8.50;99.90;;;;;;4937110;29;20260;-69
2022/03/17 14:19:59;;;;;;;2.78;2.50;;;8.50;99.90;;;;;;4935583;29;20209;-69
2022/03/17 14:25:11;;;;;;;16.15;7.07;;;8.60;99.90;;;;;;4934677;29;20353;-69
2022/03/17 14:27:38;;;;;;;15.02;6.53;;;8.60;99.90;;;;;;4936533;29;20209;-69
2022/03/17 14:30:06;;;;;;;28.50;11.40;;;8.70;99.90;;;;;;4935722;29;20210;-68
2022/03/17 14:32:35;;;;;;;6.75;4.97;;;8.80;99.90;;;;;;4936366;29;20694;-71
2022/03/17 14:35:02;;;;;;;3.30;2.70;;;8.80;99.90;;;;;;4936043;29;20213;-69
2022/03/17 14:37:32;;;;;;;4.90;2.38;;;8.80;99.90;;;;;;4936415;29;20218;-70
2022/03/17 14:39:59;;;;;;;4.90;3.47;;;8.80;99.90;;;;;;4935875;29;20214;-69
2022/03/17 14:42:27;;;;;;;6.95;5.35;;;8.80;99.90;;;;;;4936326;29;20230;-69
2022/03/17 14:44:53;;;;;;;2.60;2.40;;;8.80;99.90;;;;;;4935724;29;20619;-69
2022/03/17 14:47:20;;;;;;;4.70;2.40;;;8.70;99.90;;;;;;4936565;29;20210;-69
2022/03/17 14:49:47;;;;;;;3.00;2.30;;;8.70;99.90;;;;;;4935042;29;20206;-69
2022/03/17 14:52:14;;;;;;;1.67;1.50;;;8.70;99.90;;;;;;4936240;29;20226;-69
2022/03/17 14:54:42;;;;;;;3.30;2.00;;;8.70;99.90;;;;;;4936046;29;20819;-70
2022/03/17 14:57:10;;;;;;;5.22;2.10;;;8.70;99.90;;;;;;4936300;29;20248;-70
2022/03/17 14:59:37;;;;;;;1.77;1.70;;;8.80;99.90;;;;;;4935180;29;20210;-70
2022/03/17 15:02:05;;;;;;;2.67;2.22;;;8.80;99.90;;;;;;4933679;29;20609;-70
2022/03/17 15:04:32;;;;;;;4.25;2.80;;;8.80;99.90;;;;;;4934037;29;20233;-70
2022/03/17 15:06:59;;;;;;;6.70;4.00;;;8.80;99.90;;;;;;4936252;29;20209;-70
2022/03/17 15:09:26;;;;;;;17.10;8.35;;;8.90;99.90;;;;;;4934558;29;20288;-70
2022/03/17 15:11:54;;;;;;;2.20;2.03;;;8.90;99.90;;;;;;4935381;29;20321;-71
2022/03/17 15:14:21;;;;;;;5.97;1.77;;;9.00;99.90;;;;;;4935398;29;20216;-69
2022/03/17 15:16:47;;;;;;;3.88;1.80;;;9.00;99.90;;;;;;4935859;29;20268;-70
2022/03/17 15:19:14;;;;;;;4.10;2.13;;;9.00;99.90;;;;;;4935338;29;20726;-70
2022/03/17 15:21:41;;;;;;;2.03;1.83;;;9.00;99.90;;;;;;4934324;29;20727;-70
2022/03/17 15:24:07;;;;;;;4.60;2.00;;;9.10;99.90;;;;;;4935715;29;20206;-70
2022/03/17 15:26:34;;;;;;;3.13;2.28;;;9.10;99.90;;;;;;4935882;29;20277;-68
2022/03/17 15:31:46;;;;;;;4.57;1.83;;;9.10;99.90;;;;;;4935023;29;20592;-69
2022/03/17 15:34:14;;;;;;;2.83;2.08;;;9.10;99.90;;;;;;4931758;29;20226;-69
2022/03/17 15:36:40;;;;;;;1.95;1.30;;;9.10;99.90;;;;;;4927443;29;20225;-69
2022/03/17 15:39:08;;;;;;;7.65;2.75;;;9.10;99.90;;;;;;4935237;29;20213;-69
2022/03/17 15:41:34;;;;;;;6.22;3.08;;;9.10;99.90;;;;;;4934678;29;20226;-69
2022/03/17 15:44:04;;;;;;;3.83;2.58;;;9.10;99.90;;;;;;4934773;29;20577;-69
2022/03/17 15:46:31;;;;;;;10.63;3.97;;;9.10;99.90;;;;;;4935390;29;20225;-69
2022/03/17 15:48:58;;;;;;;2.33;2.15;;;9.10;99.90;;;;;;4935254;29;20213;-69
2022/03/17 15:51:25;;;;;;;6.80;2.35;;;9.10;99.90;;;;;;4934123;29;20292;-70
2022/03/17 15:53:51;;;;;;;2.42;1.85;;;9.10;99.90;;;;;;4935222;29;20250;-69
2022/03/17 15:56:18;;;;;;;3.80;2.03;;;9.10;99.90;;;;;;4934872;29;20683;-70
2022/03/17 15:58:46;;;;;;;9.27;2.78;;;9.10;99.90;;;;;;4934510;29;20218;-69
2022/03/17 16:01:16;;;;;;;3.20;2.15;;;9.10;99.90;;;;;;4934326;29;20381;-69
2022/03/17 16:03:43;;;;;;;7.03;2.38;;;9.10;99.90;;;;;;4935263;29;20213;-69
2022/03/17 16:06:10;;;;;;;10.55;2.60;;;9.10;99.90;;;;;;4934421;29;20209;-69
2022/03/17 16:08:37;;;;;;;5.18;3.28;;;9.10;99.90;;;;;;4934884;29;20214;-67
2022/03/17 16:14:29;;;;;;;5.97;2.53;;;9.00;99.90;;;;;;4894016;29;20238;-68
2022/03/17 16:16:57;;;;;;;17.23;10.25;;;9.00;99.90;;;;;;4894801;29;20298;-69
2022/03/17 16:19:24;;;;;;;13.43;6.88;;;9.00;99.90;;;;;;4918606;29;20214;-68
2022/03/17 16:21:51;;;;;;;3.95;3.05;;;9.00;99.90;;;;;;4934648;29;20594;-67
2022/03/17 16:24:19;;;;;;;3.38;2.22;;;9.00;99.90;;;;;;4932827;29;20210;-68
2022/03/17 16:26:45;;;;;;;4.57;2.25;;;9.00;99.90;;;;;;4934466;29;20232;-69
2022/03/17 16:29:12;;;;;;;5.65;3.00;;;8.90;99.90;;;;;;4933843;29;20221;-68
2022/03/17 16:31:45;;;;;;;6.75;2.90;;;9.00;99.90;;;;;;4933561;29;20281;-69
2022/03/17 16:34:13;;;;;;;5.40;2.17;;;9.00;99.90;;;;;;4934026;29;20236;-68
2022/03/17 16:36:44;;;;;;;2.85;2.67;;;8.90;99.90;;;;;;4934008;29;20221;-69
2022/03/17 16:39:10;;;;;;;6.97;2.42;;;8.90;99.90;;;;;;4934330;29;20217;-68
2022/03/17 16:41:37;;;;;;;6.15;2.35;;;8.90;99.90;;;;;;4934091;29;20256;-69
2022/03/17 16:44:05;;;;;;;2.88;2.10;;;8.80;99.90;;;;;;4933773;29;20671;-69
2022/03/17 16:46:32;;;;;;;2.58;2.10;;;8.80;99.90;;;;;;4934292;29;20305;-68
2022/03/17 16:48:58;;;;;;;5.63;2.42;;;8.80;99.90;;;;;;4934360;29;20281;-68
2022/03/17 16:51:27;;;;;;;3.58;2.65;;;8.70;99.90;;;;;;4934122;29;20237;-69
2022/03/17 16:53:54;;;;;;;6.05;2.40;;;8.70;99.90;;;;;;4934525;29;20394;-68
2022/03/17 16:56:22;;;;;;;7.03;2.70;;;8.60;99.90;;;;;;4933762;29;20221;-69
2022/03/17 16:58:49;;;;;;;15.95;3.85;;;8.60;99.90;;;;;;4933643;29;20590;-68
2022/03/17 17:01:16;;;;;;;4.18;3.47;;;8.50;99.90;;;;;;4933040;29;20628;-69
2022/03/17 17:03:43;;;;;;;1.60;1.60;;;8.50;99.90;;;;;;4931452;29;20206;-68
2022/03/17 17:06:10;;;;;;;9.45;4.30;;;8.40;99.90;;;;;;4936298;29;20679;-69
2022/03/17 17:08:39;;;;;;;10.13;5.20;;;8.40;99.90;;;;;;4938425;29;20643;-69
2022/03/17 17:11:06;;;;;;;12.20;8.50;;;8.40;99.90;;;;;;4935467;29;20233;-69
2022/03/17 17:13:34;;;;;;;14.05;8.05;;;8.30;99.90;;;;;;4934650;29;20226;-70
2022/03/17 17:16:01;;;;;;;16.85;5.38;;;8.30;99.90;;;;;;4934205;29;20675;-68
2022/03/17 17:18:28;;;;;;;10.88;6.72;;;8.20;99.90;;;;;;4934338;29;20220;-68
2022/03/17 17:20:56;;;;;;;11.00;5.40;;;8.20;99.90;;;;;;4932839;29;20711;-68
2022/03/17 17:31:37;;;;;;;19.02;6.93;;;8.00;99.90;;;;;;4933036;29;20256;-68
2022/03/17 17:34:04;;;;;;;62.28;8.85;;;7.90;99.90;;;;;;4930896;29;20229;-68
2022/03/17 17:36:30;;;;;;;16.67;8.23;;;7.90;99.90;;;;;;4931642;29;20675;-68
2022/03/17 17:38:57;;;;;;;19.02;7.90;;;7.80;99.90;;;;;;4933309;29;20218;-68
2022/03/17 17:41:25;;;;;;;10.35;6.65;;;7.80;99.90;;;;;;4933150;29;20643;-68
2022/03/17 17:43:53;;;;;;;12.43;6.22;;;7.70;99.90;;;;;;4933578;29;20214;-68
2022/03/17 17:46:21;;;;;;;17.70;7.80;;;7.70;99.90;;;;;;4933432;29;20300;-68
2022/03/17 17:48:48;;;;;;;14.38;6.18;;;7.60;99.90;;;;;;4933449;29;20209;-68
2022/03/17 17:51:14;;;;;;;11.35;4.75;;;7.60;99.90;;;;;;4932260;29;20237;-68
2022/03/17 17:53:41;;;;;;;6.95;2.50;;;7.50;99.90;;;;;;4933621;29;20320;-68
2022/03/17 17:56:08;;;;;;;2.97;2.55;;;7.40;99.90;;;;;;4933129;29;20758;-68
2022/03/17 17:58:36;;;;;;;7.22;4.10;;;7.40;99.90;;;;;;4932944;29;20218;-67
2022/03/17 18:01:03;;;;;;;18.40;7.15;;;7.40;99.90;;;;;;4932445;29;20238;-69
2022/03/17 18:03:30;;;;;;;55.78;20.95;;;7.30;99.90;;;;;;4933130;29;20636;-69
2022/03/17 18:05:57;;;;;;;21.63;11.45;;;7.20;99.90;;;;;;4933101;29;20221;-69
2022/03/17 18:08:25;;;;;;;33.50;16.02;;;7.20;99.90;;;;;;4933471;29;20220;-69
2022/03/17 18:10:52;;;;;;;40.83;19.05;;;7.10;99.90;;;;;;4932967;29;20226;-69
2022/03/17 18:13:23;;;;;;;20.75;10.30;;;7.00;99.90;;;;;;4933320;29;20234;-70